createdAt,value
2023-12-15T00:00:29.692Z,102718.41
2023-12-15T00:02:57.383Z,102720.19
2023-12-15T00:05:24.449Z,102720.16
2023-12-15T00:07:52.128Z,102721.06
2023-12-15T00:10:19.300Z,102712.94
2023-12-15T00:12:46.066Z,102715.63
2023-12-15T00:15:13.645Z,102716.63
2023-12-15T00:17:40.776Z,102723.84
2023-12-15T00:20:08.955Z,102718.41
2023-12-15T00:22:35.706Z,102721.81
2023-12-15T00:25:02.478Z,102722.84
2023-12-15T00:27:29.176Z,102725.56
2023-12-15T00:29:56.055Z,102722.69
2023-12-15T00:32:22.979Z,102725.41
2023-12-15T00:34:49.779Z,102726.31
2023-12-15T00:37:16.504Z,102727.09
2023-12-15T00:39:43.211Z,102722.63
2023-12-15T00:42:10.323Z,102715.31
2023-12-15T00:44:37.077Z,102720.91
2023-12-15T00:47:04.126Z,102737.06
2023-12-15T00:49:30.997Z,102733.53
2023-12-15T00:51:59.033Z,102728.97
2023-12-15T00:54:25.731Z,102736.03
2023-12-15T00:56:52.398Z,102738.72
2023-12-15T00:59:19.310Z,102727.03
2023-12-15T01:01:46.034Z,102730.63
2023-12-15T01:04:13.068Z,102728.06
2023-12-15T01:06:39.748Z,102736.13
2023-12-15T01:09:06.815Z,102741.38
2023-12-15T01:11:33.638Z,102735.03
2023-12-15T01:14:00.736Z,102740.38
2023-12-15T01:16:28.655Z,102737.75
2023-12-15T01:18:55.539Z,102745.81
2023-12-15T01:21:22.290Z,102749.31
2023-12-15T01:23:48.984Z,102749.41
2023-12-15T01:26:15.727Z,102747.63
2023-12-15T01:28:43.276Z,102737.63
2023-12-15T01:31:10.194Z,102744.03
2023-12-15T01:33:37.063Z,102751.09
2023-12-15T01:36:04.003Z,102758.16
2023-12-15T01:38:30.797Z,102750.06
2023-12-15T01:40:57.560Z,102754.53
2023-12-15T01:43:24.318Z,102752.63
2023-12-15T01:45:58.303Z,102748.06
2023-12-15T01:48:32.145Z,102749.78
2023-12-15T01:50:59.328Z,102759.63
2023-12-15T01:53:26.082Z,102759.53
2023-12-15T01:55:52.797Z,102756.91
2023-12-15T01:58:19.820Z,102757.81
2023-12-15T02:00:49.709Z,102761.31
2023-12-15T02:03:16.476Z,102755.00
2023-12-15T02:05:43.283Z,102757.56
2023-12-15T02:08:10.064Z,102746.75
2023-12-15T02:10:40.093Z,102746.72
2023-12-15T02:13:07.728Z,102747.63
2023-12-15T02:15:35.035Z,102754.78
2023-12-15T02:18:03.476Z,102750.28
2023-12-15T02:20:31.854Z,102741.28
2023-12-15T02:23:00.525Z,102735.00
2023-12-15T02:25:27.596Z,102732.22
2023-12-15T02:27:55.097Z,102733.19
2023-12-15T02:30:21.941Z,102730.53
2023-12-15T02:32:49.181Z,102723.31
2023-12-15T02:35:17.998Z,102730.50
2023-12-15T02:37:44.764Z,102738.59
2023-12-15T02:40:11.732Z,102726.03
2023-12-15T02:42:38.440Z,102733.97
2023-12-15T02:45:05.694Z,102736.53
2023-12-15T02:47:32.667Z,102744.69
2023-12-15T02:50:00.045Z,102732.84
2023-12-15T02:52:26.746Z,102737.31
2023-12-15T02:54:53.515Z,102740.13
2023-12-15T02:57:20.251Z,102742.81
2023-12-15T02:59:46.949Z,102734.72
2023-12-15T03:02:13.820Z,102746.47
2023-12-15T03:04:40.504Z,102739.22
2023-12-15T03:07:07.260Z,102747.34
2023-12-15T03:09:34.010Z,102738.31
2023-12-15T03:12:00.666Z,102733.84
2023-12-15T03:14:27.456Z,102731.97
2023-12-15T03:16:55.369Z,102726.59
2023-12-15T03:19:22.062Z,102723.84
2023-12-15T03:21:48.803Z,102727.50
2023-12-15T03:24:15.529Z,102723.09
2023-12-15T03:26:42.206Z,102716.81
2023-12-15T03:29:09.106Z,102714.97
2023-12-15T03:31:38.503Z,102706.06
2023-12-15T03:34:05.229Z,102699.66
2023-12-15T03:36:36.814Z,102706.75
2023-12-15T03:39:04.325Z,102707.69
2023-12-15T03:41:31.307Z,102699.56
2023-12-15T03:43:58.141Z,102704.13
2023-12-15T03:46:24.905Z,102696.97
2023-12-15T03:48:51.736Z,102692.50
2023-12-15T03:51:18.733Z,102696.91
2023-12-15T03:53:45.455Z,102698.56
2023-12-15T03:56:12.277Z,102701.44
2023-12-15T03:58:38.982Z,102711.44
2023-12-15T04:01:05.858Z,102715.84
2023-12-15T04:03:32.752Z,102721.13
2023-12-15T04:06:01.606Z,102724.66
2023-12-15T04:08:29.257Z,102729.09
2023-12-15T04:10:57.371Z,102737.97
2023-12-15T04:13:24.445Z,102740.63
2023-12-15T04:15:51.148Z,102743.28
2023-12-15T04:18:18.080Z,102741.53
2023-12-15T04:20:45.033Z,102735.22
2023-12-15T04:23:11.804Z,102739.63
2023-12-15T04:25:39.453Z,102740.66
2023-12-15T04:28:06.098Z,102742.34
2023-12-15T04:30:32.822Z,102747.72
2023-12-15T04:32:59.618Z,102745.03
2023-12-15T04:35:26.382Z,102750.25
2023-12-15T04:37:53.784Z,102750.25
2023-12-15T04:40:20.889Z,102756.53
2023-12-15T04:42:47.617Z,102753.84
2023-12-15T04:45:15.087Z,102762.72
2023-12-15T04:47:42.087Z,102771.78
2023-12-15T04:50:09.636Z,102772.66
2023-12-15T04:52:36.384Z,102777.13
2023-12-15T04:55:03.624Z,102776.13
2023-12-15T04:57:30.313Z,102776.13
2023-12-15T04:59:56.979Z,102786.72
2023-12-15T05:02:25.522Z,102789.47
2023-12-15T05:04:52.283Z,102785.00
2023-12-15T05:07:19.142Z,102782.22
2023-12-15T05:09:48.236Z,102783.03
2023-12-15T05:12:15.111Z,102776.78
2023-12-15T05:14:41.942Z,102775.81
2023-12-15T05:17:09.533Z,102767.56
2023-12-15T05:19:36.269Z,102771.22
2023-12-15T05:22:03.055Z,102761.22
2023-12-15T05:24:33.130Z,102762.13
2023-12-15T05:27:00.192Z,102748.59
2023-12-15T05:29:26.924Z,102754.78
2023-12-15T05:31:53.707Z,102753.97
2023-12-15T05:34:20.717Z,102756.63
2023-12-15T05:36:50.937Z,102767.41
2023-12-15T05:39:17.614Z,102757.53
2023-12-15T05:41:45.463Z,102760.28
2023-12-15T05:44:12.725Z,102757.47
2023-12-15T05:46:43.374Z,102749.34
2023-12-15T05:49:12.088Z,102740.50
2023-12-15T05:51:39.945Z,102735.00
2023-12-15T05:54:07.334Z,102746.69
2023-12-15T05:56:34.157Z,102748.38
2023-12-15T05:59:01.054Z,102706.94
2023-12-15T06:01:27.981Z,102697.94
2023-12-15T06:03:54.687Z,102699.03
2023-12-15T06:06:21.576Z,102691.56
2023-12-15T06:08:49.360Z,102690.78
2023-12-15T06:11:16.187Z,102701.56
2023-12-15T06:13:46.119Z,102698.84
2023-12-15T06:16:20.391Z,102705.22
2023-12-15T06:18:48.301Z,102706.06
2023-12-15T06:21:22.711Z,102704.06
2023-12-15T06:23:50.084Z,102703.31
2023-12-15T06:26:24.294Z,102704.91
2023-12-15T06:28:52.395Z,102709.56
2023-12-15T06:31:19.306Z,102710.47
2023-12-15T06:33:46.400Z,102714.03
2023-12-15T06:36:13.502Z,102714.94
2023-12-15T06:38:44.254Z,102704.97
2023-12-15T06:41:11.763Z,102698.69
2023-12-15T06:43:42.832Z,102698.72
2023-12-15T06:46:09.992Z,102702.16
2023-12-15T06:48:37.139Z,102698.56
2023-12-15T06:51:05.776Z,102702.16
2023-12-15T06:53:32.528Z,102698.47
2023-12-15T06:56:00.780Z,102706.63
2023-12-15T06:58:27.769Z,102698.47
2023-12-15T07:00:54.687Z,102707.28
2023-12-15T07:03:21.698Z,102618.38
2023-12-15T07:05:48.723Z,102623.81
2023-12-15T07:08:15.736Z,102615.78
2023-12-15T07:10:43.044Z,102621.06
2023-12-15T07:13:09.779Z,102621.06
2023-12-15T07:15:36.970Z,102619.34
2023-12-15T07:18:04.013Z,102612.22
2023-12-15T07:20:30.931Z,102607.59
2023-12-15T07:22:57.770Z,102610.22
2023-12-15T07:25:27.208Z,102612.91
2023-12-15T07:27:54.822Z,102610.16
2023-12-15T07:30:22.687Z,102616.31
2023-12-15T07:32:50.263Z,102624.56
2023-12-15T07:35:25.465Z,102621.00
2023-12-15T07:37:58.822Z,102636.22
2023-12-15T07:40:25.594Z,102636.19
2023-12-15T07:42:52.246Z,102642.28
2023-12-15T07:45:18.925Z,102634.31
2023-12-15T07:47:45.826Z,102630.69
2023-12-15T07:50:12.838Z,102634.34
2023-12-15T07:52:39.657Z,102634.19
2023-12-15T07:55:06.929Z,102629.56
2023-12-15T07:57:34.844Z,102613.38
2023-12-15T08:00:01.670Z,102608.59
2023-12-15T08:02:28.469Z,102231.19
2023-12-15T08:04:56.853Z,102015.13
2023-12-15T08:07:23.717Z,102008.53
2023-12-15T08:09:50.450Z,102026.88
2023-12-15T08:12:17.164Z,102023.22
2023-12-15T08:14:43.937Z,102034.56
2023-12-15T08:17:10.713Z,102027.56
2023-12-15T08:19:37.709Z,102051.81
2023-12-15T08:22:04.843Z,102056.31
2023-12-15T08:24:31.551Z,102050.00
2023-12-15T08:26:58.896Z,102050.91
2023-12-15T08:29:25.718Z,102056.22
2023-12-15T08:31:52.520Z,102052.56
2023-12-15T08:34:19.538Z,102041.72
2023-12-15T08:36:46.397Z,102028.00
2023-12-15T08:39:17.569Z,102027.25
2023-12-15T08:41:45.764Z,102018.00
2023-12-15T08:44:23.549Z,101994.16
2023-12-15T08:46:55.508Z,102001.31
2023-12-15T08:49:23.697Z,101996.13
2023-12-15T08:51:51.265Z,102006.06
2023-12-15T08:54:18.342Z,102007.94
2023-12-15T08:56:45.673Z,102019.44
2023-12-15T08:59:12.648Z,102001.34
2023-12-15T09:01:39.798Z,101993.09
2023-12-15T09:04:06.536Z,101991.66
2023-12-15T09:06:37.654Z,101998.81
2023-12-15T09:09:09.749Z,102004.13
2023-12-15T09:11:36.831Z,101996.78
2023-12-15T09:14:03.840Z,101998.63
2023-12-15T09:16:30.864Z,101998.53
2023-12-15T09:18:57.706Z,101994.81
2023-12-15T09:21:25.159Z,101989.25
2023-12-15T09:23:54.457Z,101988.16
2023-12-15T09:26:21.329Z,101994.38
2023-12-15T09:28:48.177Z,101992.50
2023-12-15T09:31:15.389Z,101994.72
2023-12-15T09:33:42.230Z,101999.38
2023-12-15T09:36:09.571Z,102004.34
2023-12-15T09:38:36.326Z,102000.84
2023-12-15T09:41:03.176Z,101997.03
2023-12-15T09:43:30.182Z,101994.94
2023-12-15T09:45:59.846Z,101987.50
2023-12-15T09:48:30.509Z,101974.72
2023-12-15T09:51:03.997Z,101983.66
2023-12-15T09:53:36.365Z,101978.00
2023-12-15T09:56:03.756Z,101981.44
2023-12-15T09:58:31.576Z,101985.03
2023-12-15T10:00:58.791Z,101979.38
2023-12-15T10:03:25.681Z,101984.81
2023-12-15T10:05:52.482Z,101978.50
2023-12-15T10:08:24.587Z,101981.16
2023-12-15T10:10:52.276Z,101981.84
2023-12-15T10:13:19.260Z,101979.38
2023-12-15T10:15:51.865Z,101981.16
2023-12-15T10:18:26.310Z,101979.91
2023-12-15T10:20:59.649Z,101977.13
2023-12-15T10:23:28.666Z,101974.25
2023-12-15T10:26:07.212Z,101967.47
2023-12-15T10:28:41.438Z,101965.28
2023-12-15T10:31:11.162Z,101973.31
2023-12-15T10:33:38.015Z,101974.22
2023-12-15T10:36:08.521Z,101974.13
2023-12-15T10:38:36.407Z,101974.94
2023-12-15T10:41:04.645Z,101971.25
2023-12-15T10:43:32.829Z,101984.47
2023-12-15T10:46:04.310Z,101981.00
2023-12-15T10:48:34.265Z,101985.19
2023-12-15T10:51:03.149Z,101992.13
2023-12-15T10:53:30.398Z,101997.34
2023-12-15T10:55:57.178Z,101992.31
2023-12-15T10:58:24.160Z,102000.31
2023-12-15T11:00:51.469Z,102005.63
2023-12-15T11:03:18.738Z,102014.50
2023-12-15T11:05:46.415Z,102016.31
2023-12-15T11:08:14.476Z,102022.78
2023-12-15T11:10:42.581Z,102027.22
2023-12-15T11:13:48.681Z,102030.72
2023-12-15T11:16:18.426Z,102024.16
2023-12-15T11:18:45.658Z,102025.00
2023-12-15T11:21:13.050Z,102017.78
2023-12-15T11:24:09.539Z,102018.47
2023-12-15T11:26:42.387Z,102004.69
2023-12-15T11:29:19.922Z,102013.59
2023-12-15T11:31:46.718Z,102018.06
2023-12-15T11:34:43.580Z,102036.88
2023-12-15T11:37:12.883Z,102037.56
2023-12-15T11:39:40.631Z,102046.53
2023-12-15T11:42:09.953Z,102041.22
2023-12-15T11:44:37.910Z,102054.94
2023-12-15T11:47:05.263Z,102058.38
2023-12-15T11:49:33.061Z,102070.28
2023-12-15T11:52:00.112Z,102071.09
2023-12-15T11:54:26.865Z,102090.97
2023-12-15T11:56:54.198Z,102095.31
2023-12-15T11:59:20.925Z,102101.44
2023-12-15T12:01:49.761Z,102116.84
2023-12-15T12:04:20.151Z,102124.78
2023-12-15T12:06:47.907Z,102127.63
2023-12-15T12:09:14.671Z,102138.19
2023-12-15T12:11:41.631Z,102136.56
2023-12-15T12:14:11.896Z,102145.38
2023-12-15T12:16:38.646Z,102155.03
2023-12-15T12:19:05.504Z,102165.00
2023-12-15T12:21:33.226Z,102172.22
2023-12-15T12:24:01.505Z,102178.69
2023-12-15T12:26:29.508Z,102184.63
2023-12-15T12:28:59.497Z,102193.94
2023-12-15T12:31:28.436Z,102192.31
2023-12-15T12:33:55.312Z,102203.13
2023-12-15T12:36:22.590Z,102208.56
2023-12-15T12:38:50.565Z,102219.41
2023-12-15T12:41:18.039Z,102223.06
2023-12-15T12:43:46.780Z,102229.41
2023-12-15T12:46:14.387Z,102234.81
2023-12-15T12:48:44.540Z,102241.25
2023-12-15T12:51:11.602Z,102261.75
2023-12-15T12:53:38.445Z,102273.69
2023-12-15T12:56:06.745Z,102283.47
2023-12-15T12:58:34.408Z,102287.03
2023-12-15T13:01:01.157Z,102301.50
2023-12-15T13:03:27.962Z,102294.22
2023-12-15T13:05:56.586Z,102301.50
2023-12-15T13:08:23.561Z,102318.41
2023-12-15T13:10:50.900Z,102313.75
2023-12-15T13:13:17.761Z,102314.44
2023-12-15T13:15:44.415Z,102318.03
2023-12-15T13:18:11.813Z,102316.19
2023-12-15T13:20:40.077Z,102316.28
2023-12-15T13:23:10.718Z,102316.16
2023-12-15T13:25:37.758Z,102326.22
2023-12-15T13:28:06.787Z,102332.19
2023-12-15T13:30:33.622Z,102329.84
2023-12-15T13:33:00.581Z,102329.03
2023-12-15T13:35:27.394Z,102344.31
2023-12-15T13:37:55.027Z,102338.91
2023-12-15T13:40:22.181Z,102333.72
2023-12-15T13:42:49.101Z,102332.91
2023-12-15T13:45:15.940Z,102330.19
2023-12-15T13:47:43.822Z,102338.31
2023-12-15T13:50:10.946Z,102342.97
2023-12-15T13:52:38.687Z,102350.44
2023-12-15T13:55:06.197Z,102362.28
2023-12-15T13:57:33.265Z,102355.72
2023-12-15T14:00:00.011Z,102349.22
2023-12-15T14:02:28.090Z,102361.13
2023-12-15T14:04:55.331Z,102366.56
2023-12-15T14:07:22.293Z,102383.72
2023-12-15T14:09:49.527Z,102390.06
2023-12-15T14:12:17.010Z,102385.69
2023-12-15T14:14:45.205Z,102385.75
2023-12-15T14:17:12.090Z,102401.88
2023-12-15T14:19:38.862Z,102404.31
2023-12-15T14:22:08.218Z,102405.38
2023-12-15T14:24:34.954Z,102405.31
2023-12-15T14:27:04.271Z,102407.97
2023-12-15T14:29:32.457Z,102402.53
2023-12-15T14:31:59.800Z,102406.19
2023-12-15T14:34:27.124Z,102420.53
2023-12-15T14:36:53.949Z,102412.19
2023-12-15T14:39:20.810Z,102428.50
2023-12-15T14:41:47.617Z,102432.25
2023-12-15T14:44:14.487Z,102435.09
2023-12-15T14:46:41.469Z,102437.78
2023-12-15T14:49:08.689Z,102445.72
2023-12-15T14:51:35.463Z,102449.47
2023-12-15T14:54:03.466Z,102459.84
2023-12-15T14:56:30.396Z,102455.25
2023-12-15T14:58:57.131Z,102458.81
2023-12-15T15:01:23.983Z,102465.50
2023-12-15T15:03:51.240Z,102470.94
2023-12-15T15:06:27.075Z,102478.91
2023-12-15T15:09:01.195Z,102485.88
2023-12-15T15:11:29.336Z,102481.63
2023-12-15T15:13:56.772Z,102490.72
2023-12-15T15:16:23.535Z,102491.81
2023-12-15T15:18:50.641Z,102496.53
2023-12-15T15:21:17.985Z,102492.91
2023-12-15T15:23:44.749Z,102482.06
2023-12-15T15:26:11.575Z,102511.09
2023-12-15T15:28:38.861Z,102510.44
2023-12-15T15:31:06.526Z,102518.69
2023-12-15T15:33:33.733Z,102518.94
2023-12-15T15:36:01.377Z,102515.47
2023-12-15T15:38:28.191Z,102507.22
2023-12-15T15:40:55.343Z,102510.63
2023-12-15T15:43:22.790Z,102505.97
2023-12-15T15:45:50.704Z,102499.66
2023-12-15T15:48:17.768Z,102499.63
2023-12-15T15:50:46.381Z,102503.19
2023-12-15T15:53:13.486Z,102507.66
2023-12-15T15:55:40.645Z,102513.88
2023-12-15T15:58:07.625Z,102519.19
2023-12-15T16:00:35.164Z,102516.28
2023-12-15T16:03:02.791Z,102525.31
2023-12-15T16:05:34.456Z,102513.59
2023-12-15T16:08:02.119Z,102524.16
2023-12-15T16:10:28.923Z,102517.19
2023-12-15T16:13:11.108Z,102525.03
2023-12-15T16:15:37.963Z,102520.63
2023-12-15T16:18:05.140Z,102522.50
2023-12-15T16:20:31.993Z,102526.91
2023-12-15T16:22:59.279Z,102526.88
2023-12-15T16:25:26.307Z,102537.81
2023-12-15T16:27:53.026Z,102539.59
2023-12-15T16:30:20.720Z,102557.59
2023-12-15T16:32:48.619Z,102553.09
2023-12-15T16:35:15.405Z,102548.53
2023-12-15T16:37:42.768Z,102558.38
2023-12-15T16:40:10.108Z,102570.97
2023-12-15T16:42:44.753Z,102568.41
2023-12-15T16:45:13.084Z,102565.66
2023-12-15T16:47:44.522Z,102579.13
2023-12-15T16:50:12.631Z,102581.91
2023-12-15T16:52:40.752Z,102581.09
2023-12-15T16:55:09.509Z,102589.38
2023-12-15T16:57:37.605Z,102580.44
2023-12-15T17:00:05.158Z,102596.66
2023-12-15T17:02:32.200Z,102595.72
2023-12-15T17:05:01.517Z,102602.06
2023-12-15T17:07:28.361Z,102603.94
2023-12-15T17:09:55.732Z,102625.59
2023-12-15T17:12:22.532Z,102635.25
2023-12-15T17:14:50.035Z,102629.88
2023-12-15T17:17:17.044Z,102635.25
2023-12-15T17:19:44.043Z,102641.72
2023-12-15T17:22:11.611Z,102634.53
2023-12-15T17:24:39.492Z,102615.69
2023-12-15T17:27:06.437Z,102612.13
2023-12-15T17:29:39.957Z,102602.16
2023-12-15T17:32:13.642Z,102601.22
2023-12-15T17:34:40.518Z,102590.34
2023-12-15T17:37:07.313Z,102588.75
2023-12-15T17:39:34.046Z,102602.25
2023-12-15T17:42:00.855Z,102604.13
2023-12-15T17:44:27.632Z,102608.53
2023-12-15T17:46:54.377Z,102610.47
2023-12-15T17:49:21.606Z,102616.81
2023-12-15T17:51:48.413Z,102608.84
2023-12-15T17:54:15.792Z,102612.47
2023-12-15T17:56:44.008Z,102625.34
2023-12-15T17:59:11.345Z,102635.19
2023-12-15T18:01:38.364Z,102634.25
2023-12-15T18:04:05.570Z,102650.47
2023-12-15T18:06:33.266Z,102654.03
2023-12-15T18:09:02.217Z,102657.78
2023-12-15T18:11:30.519Z,102664.00
2023-12-15T18:13:57.875Z,102657.59
2023-12-15T18:16:25.302Z,102652.72
2023-12-15T18:19:26.741Z,102639.31
2023-12-15T18:22:16.878Z,102638.28
2023-12-15T18:25:46.493Z,102634.00
2023-12-15T18:28:10.158Z,102640.22
2023-12-15T18:30:43.713Z,102659.03
2023-12-15T18:33:10.771Z,102660.25
2023-12-15T18:35:38.270Z,102675.56
2023-12-15T18:38:05.863Z,102683.47
2023-12-15T18:40:33.931Z,102683.59
2023-12-15T18:43:01.638Z,102678.06
2023-12-15T18:46:27.630Z,102684.34
2023-12-15T18:49:09.296Z,102680.50
2023-12-15T18:51:37.156Z,102686.00
2023-12-15T18:54:04.467Z,102676.13
2023-12-15T18:56:31.500Z,102683.38
2023-12-15T18:58:59.048Z,102693.19
2023-12-15T19:01:31.916Z,102702.16
2023-12-15T19:03:59.391Z,102710.41
2023-12-15T19:06:26.772Z,102696.91
2023-12-15T19:08:53.908Z,102688.88
2023-12-15T19:11:29.774Z,102692.44
2023-12-15T19:13:57.887Z,102701.38
2023-12-15T19:16:25.146Z,102700.53
2023-12-15T19:18:52.641Z,102698.66
2023-12-15T19:21:20.264Z,102704.91
2023-12-15T19:23:50.285Z,102696.66
2023-12-15T19:26:21.934Z,102692.03
2023-12-15T19:28:58.862Z,102685.78
2023-12-15T19:31:25.883Z,102683.97
2023-12-15T19:33:56.742Z,102683.97
2023-12-15T19:36:23.674Z,102700.19
2023-12-15T19:38:50.666Z,102699.34
2023-12-15T19:41:19.414Z,102683.94
2023-12-15T19:43:47.385Z,102686.47
2023-12-15T19:46:21.840Z,102699.22
2023-12-15T19:48:48.865Z,102693.72
2023-12-15T19:51:22.657Z,102701.84
2023-12-15T19:53:51.133Z,102695.63
2023-12-15T19:56:25.269Z,102700.06
2023-12-15T19:58:53.009Z,102706.41
2023-12-15T20:01:31.005Z,102706.50
2023-12-15T20:04:00.893Z,102710.03
2023-12-15T20:06:31.163Z,102709.19
2023-12-15T20:09:05.381Z,102690.00
2023-12-15T20:11:37.900Z,102673.84
2023-12-15T20:14:07.187Z,102690.94
2023-12-15T20:16:35.847Z,102698.13
2023-12-15T20:19:03.460Z,102685.59
2023-12-15T20:21:31.446Z,102690.19
2023-12-15T20:23:59.416Z,102687.38
2023-12-15T20:26:26.595Z,102700.75
2023-12-15T20:28:54.500Z,102700.91
2023-12-15T20:31:23.040Z,102707.19
2023-12-15T20:33:50.333Z,102710.03
2023-12-15T20:36:19.229Z,102720.13
2023-12-15T20:38:46.255Z,102724.78
2023-12-15T20:41:18.354Z,102726.91
2023-12-15T20:43:45.214Z,102722.44
2023-12-15T20:46:12.043Z,102714.25
2023-12-15T20:48:39.099Z,102730.41
2023-12-15T20:51:06.585Z,102745.69
2023-12-15T20:53:33.423Z,102734.94
2023-12-15T20:56:00.543Z,102740.34
2023-12-15T20:58:27.529Z,102735.97
2023-12-15T21:00:54.510Z,102713.50
2023-12-15T21:03:22.027Z,102714.44
2023-12-15T21:05:49.557Z,102718.75
2023-12-15T21:08:16.415Z,102718.72
2023-12-15T21:10:43.732Z,102725.91
2023-12-15T21:13:12.555Z,102720.59
2023-12-15T21:15:42.934Z,102720.84
2023-12-15T21:18:12.347Z,102723.56
2023-12-15T21:20:41.178Z,102732.53
2023-12-15T21:23:08.025Z,102745.00
2023-12-15T21:25:34.794Z,102743.16
2023-12-15T21:28:02.512Z,102748.38
2023-12-15T21:30:29.457Z,102745.59
2023-12-15T21:32:56.683Z,102745.47
2023-12-15T21:35:24.344Z,102737.22
2023-12-15T21:37:51.406Z,102749.69
2023-12-15T21:40:19.224Z,102744.16
2023-12-15T21:42:47.633Z,102748.97
2023-12-15T21:45:14.544Z,102747.16
2023-12-15T21:47:41.825Z,102733.53
2023-12-15T21:50:11.240Z,102721.03
2023-12-15T21:52:39.234Z,102712.03
2023-12-15T21:55:06.897Z,102714.72
2023-12-15T21:57:34.358Z,102719.56
2023-12-15T22:00:01.044Z,102732.63
2023-12-15T22:02:27.816Z,102730.19
2023-12-15T22:04:54.846Z,102727.50
2023-12-15T22:07:22.117Z,102733.19
2023-12-15T22:09:50.512Z,102741.09
2023-12-15T22:12:18.355Z,102743.97
2023-12-15T22:14:45.991Z,102749.41
2023-12-15T22:17:14.247Z,102752.09
2023-12-15T22:19:41.764Z,102757.53
2023-12-15T22:22:08.743Z,102774.56
2023-12-15T22:24:35.844Z,102772.81
2023-12-15T22:27:03.620Z,102787.22
2023-12-15T22:29:31.570Z,102797.88
2023-12-15T22:31:58.764Z,102782.84
2023-12-15T22:34:25.703Z,102782.00
2023-12-15T22:36:52.799Z,102786.47
2023-12-15T22:39:19.537Z,102785.50
2023-12-15T22:41:46.469Z,102791.81
2023-12-15T22:44:13.440Z,102790.06
2023-12-15T22:46:44.207Z,102797.31
2023-12-15T22:49:11.221Z,102802.63
2023-12-15T22:51:42.589Z,102818.84
2023-12-15T22:54:13.653Z,102811.84
2023-12-15T22:56:44.397Z,102797.28
2023-12-15T22:59:14.701Z,102809.78
2023-12-15T23:01:41.858Z,102819.06
2023-12-15T23:04:08.963Z,102810.94
2023-12-15T23:06:36.285Z,102812.66
2023-12-15T23:09:03.576Z,102811.59
2023-12-15T23:11:31.064Z,102817.94
2023-12-15T23:13:57.792Z,102821.44
2023-12-15T23:16:24.653Z,102823.25
2023-12-15T23:18:51.619Z,102821.56
2023-12-15T23:21:26.301Z,102818.84
2023-12-15T23:23:56.206Z,102826.03
2023-12-15T23:26:24.563Z,102832.28
2023-12-15T23:28:52.088Z,102827.03
2023-12-15T23:31:19.132Z,102836.00
2023-12-15T23:33:46.074Z,102840.63
2023-12-15T23:36:14.419Z,102843.38
2023-12-15T23:38:41.609Z,102850.38
2023-12-15T23:41:09.136Z,102847.59
2023-12-15T23:43:35.977Z,102850.38
2023-12-15T23:46:02.873Z,102859.31
2023-12-15T23:48:29.959Z,102860.31
2023-12-15T23:50:56.757Z,102864.75
2023-12-15T23:53:24.152Z,102859.31
2023-12-15T23:55:51.042Z,102855.78
2023-12-15T23:58:17.996Z,102849.50
